Grand Canyon Natl Park, Arizona
Current Conditions -  °F | °C
As of 3:54 PM on Monday 22 Dec 2014 (Local Time) from KGCN Reporting Station
Clear Clear  
Wind Chill: 10°   Ceiling: Unl
Heat Index: 10°   Visibility: 10mi
Dew Point:   Wind: 12mph
Humidity: 50%   Direction: 310°NW
Pressure: 30"   Gusts: 21mph
Location:  36.2°N, 112.07°W
Report Text: KGCN 222254Z 31010G18KT 10SM CLR 10/00 A3000 RMK AO2 SLP135 T01000000
Loading
Personal Weather Stations






























Interactive Weather Map New forecast layout! Learn more

10-Day Weather Forecast

Advertisements
Track Severe Weather on mobile